Bagdad, Florida
Current Conditions -  °F | °C
As of 3:56 PM on Thursday 27 Nov 2014 (Local Time) from KNDZ Reporting Station
Clear Clear  
Wind Chill: 57°   Ceiling: Unl
Heat Index: 57°   Visibility: 10mi
Dew Point: 29°   Wind: 14mph
Humidity: 34%   Direction: 340°NNW
Pressure: 30.35"   Gusts: NA
Location:  30.6°N, 87.04°W
Report Text: KNDZ 272156Z AUTO 34012KT 10SM CLR 14/M02 A3035 RMK AO2 SLP264 T01391017
Loading
Personal Weather Stations






























Interactive Weather Map New forecast layout! Learn more

10-Day Weather Forecast

Advertisements
Track Severe Weather on mobile